Time;durP1;ratioP1;P1;durP2;ratioP2;P2;SDS_P1;SDS_P2;PMS_P1;PMS_P2;Temp;Humidity;BMP_temperature;BMP_pressure;BME280_temperature;BME280_humidity;BME280_pressure;Samples;Min_cycle;Max_cycle;Signal;HPM_P1;HPM_P2
2021/04/22 00:00:24;;;;;;;20.27;2.93;;;;;;;;;;5040504;28;20469;-64
2021/04/22 00:02:50;;;;;;;18.73;2.90;;;;;;;;;;5053370;28;20342;-65
2021/04/22 00:05:15;;;;;;;16.38;3.22;;;;;;;;;;5053122;28;20082;-65
2021/04/22 00:07:40;;;;;;;21.95;3.03;;;;;;;;;;5052811;28;20024;-64
2021/04/22 00:10:07;;;;;;;15.82;2.70;;;;;;;;;;5051751;28;20044;-65
2021/04/22 00:12:32;;;;;;;31.00;3.63;;;;;;;;;;5047441;28;20052;-63
2021/04/22 00:14:58;;;;;;;25.98;2.90;;;;;;;;;;5053101;28;20040;-65
2021/04/22 00:17:23;;;;;;;32.30;4.82;;;;;;;;;;5053155;28;20092;-65
2021/04/22 00:19:48;;;;;;;25.33;3.07;;;;;;;;;;5052609;28;20121;-65
2021/04/22 00:22:14;;;;;;;30.08;4.72;;;;;;;;;;5052596;28;20275;-65
2021/04/22 00:24:39;;;;;;;20.55;3.53;;;;;;;;;;5079825;22;20041;-65
2021/04/22 00:27:04;;;;;;;20.70;3.63;;;;;;;;;;5089480;28;20138;-65
2021/04/22 00:29:29;;;;;;;20.92;3.58;;;;;;;;;;5092760;28;20737;-66
2021/04/22 00:31:54;;;;;;;18.45;3.08;;;;;;;;;;5093030;28;20494;-65
2021/04/22 00:34:20;;;;;;;28.67;2.88;;;;;;;;;;5092802;28;20175;-66
2021/04/22 00:36:45;;;;;;;19.93;2.70;;;;;;;;;;5092651;28;20039;-66
2021/04/22 00:39:10;;;;;;;17.17;2.50;;;;;;;;;;5092194;28;20821;-66
2021/04/22 00:41:35;;;;;;;14.15;3.55;;;;;;;;;;5090558;28;20059;-65
2021/04/22 00:44:01;;;;;;;19.85;3.35;;;;;;;;;;5092695;28;20054;-66
2021/04/22 00:46:26;;;;;;;26.00;3.50;;;;;;;;;;5092541;28;20024;-65
2021/04/22 00:48:51;;;;;;;19.65;2.90;;;;;;;;;;5092330;28;20042;-67
2021/04/22 00:51:16;;;;;;;22.38;3.38;;;;;;;;;;5092079;28;20032;-65
2021/04/22 00:53:43;;;;;;;19.13;2.90;;;;;;;;;;5092144;28;20066;-66
2021/04/22 00:56:08;;;;;;;17.85;3.35;;;;;;;;;;5089727;28;20023;-65
2021/04/22 00:58:33;;;;;;;34.20;3.72;;;;;;;;;;5092047;28;20016;-65
2021/04/22 01:01:00;;;;;;;25.42;3.00;;;;;;;;;;5089815;28;20096;-65
2021/04/22 01:03:26;;;;;;;23.33;3.63;;;;;;;;;;5091155;28;20365;-65
2021/04/22 01:05:52;;;;;;;16.95;2.92;;;;;;;;;;5091736;28;20066;-65
2021/04/22 01:08:18;;;;;;;23.60;3.15;;;;;;;;;;5091568;28;20020;-65
2021/04/22 01:10:43;;;;;;;24.20;2.72;;;;;;;;;;5091912;28;20082;-65
2021/04/22 01:13:08;;;;;;;16.95;2.67;;;;;;;;;;5083911;28;20048;-65
2021/04/22 01:15:34;;;;;;;31.67;3.58;;;;;;;;;;5078816;28;20023;-65
2021/04/22 01:18:00;;;;;;;20.27;3.72;;;;;;;;;;5091463;28;20430;-65
2021/04/22 01:20:26;;;;;;;26.48;3.35;;;;;;;;;;5091823;28;20069;-65
2021/04/22 01:22:52;;;;;;;25.90;3.80;;;;;;;;;;5091528;28;20415;-65
2021/04/22 01:25:19;;;;;;;24.55;3.78;;;;;;;;;;5083357;28;20057;-65
2021/04/22 01:27:45;;;;;;;23.27;3.55;;;;;;;;;;5090421;28;20052;-66
2021/04/22 01:30:15;;;;;;;27.00;3.95;;;;;;;;;;5091958;28;20474;-65
2021/04/22 01:32:40;;;;;;;29.70;4.05;;;;;;;;;;5092122;28;20380;-65
2021/04/22 01:35:08;;;;;;;17.13;2.72;;;;;;;;;;5091206;28;20020;-65
2021/04/22 01:37:35;;;;;;;19.40;3.65;;;;;;;;;;5091349;28;20481;-65
2021/04/22 01:40:00;;;;;;;18.23;3.08;;;;;;;;;;5082083;28;20130;-65
2021/04/22 01:42:25;;;;;;;19.92;3.00;;;;;;;;;;5091344;28;20099;-65
2021/04/22 01:44:50;;;;;;;22.08;2.75;;;;;;;;;;5091796;28;20027;-65
2021/04/22 01:47:16;;;;;;;20.88;2.75;;;;;;;;;;5091565;28;20103;-65
2021/04/22 01:49:41;;;;;;;26.67;3.60;;;;;;;;;;5091737;28;20447;-65
2021/04/22 01:52:06;;;;;;;24.88;3.00;;;;;;;;;;5085814;28;20280;-65
2021/04/22 01:54:31;;;;;;;25.20;2.97;;;;;;;;;;5090283;28;20031;-65
2021/04/22 01:56:56;;;;;;;14.90;3.08;;;;;;;;;;5090220;28;20028;-65
2021/04/22 01:59:21;;;;;;;21.10;3.05;;;;;;;;;;5090347;28;20091;-65
2021/04/22 02:01:47;;;;;;;24.07;4.00;;;;;;;;;;5091456;28;20030;-65
2021/04/22 02:04:12;;;;;;;19.07;3.87;;;;;;;;;;5090963;28;20689;-65
2021/04/22 02:06:37;;;;;;;24.75;3.55;;;;;;;;;;5085108;28;20351;-65
2021/04/22 02:09:02;;;;;;;32.65;3.67;;;;;;;;;;5076802;28;20012;-65
2021/04/22 02:11:27;;;;;;;25.58;3.47;;;;;;;;;;5084994;28;20053;-65
2021/04/22 02:13:53;;;;;;;29.77;3.80;;;;;;;;;;5091049;28;20032;-65
2021/04/22 02:16:18;;;;;;;22.55;3.28;;;;;;;;;;5091178;28;20136;-65
2021/04/22 02:18:43;;;;;;;23.17;3.58;;;;;;;;;;5090712;28;20077;-65
2021/04/22 02:21:08;;;;;;;13.23;2.35;;;;;;;;;;5090830;28;20074;-65
2021/04/22 02:23:33;;;;;;;30.45;4.28;;;;;;;;;;5090293;28;20445;-64
2021/04/22 02:25:59;;;;;;;19.65;3.95;;;;;;;;;;5089644;28;20026;-66
2021/04/22 02:28:24;;;;;;;25.75;3.95;;;;;;;;;;5089240;28;20074;-64
2021/04/22 02:30:49;;;;;;;32.25;3.92;;;;;;;;;;5091223;28;20024;-65
2021/04/22 02:33:16;;;;;;;20.52;3.53;;;;;;;;;;5090966;28;20024;-65
2021/04/22 02:35:43;;;;;;;36.45;5.07;;;;;;;;;;5088400;28;20476;-65
2021/04/22 02:38:09;;;;;;;38.70;3.85;;;;;;;;;;5090587;28;20016;-64
2021/04/22 02:40:35;;;;;;;31.67;3.50;;;;;;;;;;5083574;28;20025;-65
2021/04/22 02:43:02;;;;;;;24.20;3.78;;;;;;;;;;5087462;28;20028;-64
2021/04/22 02:45:32;;;;;;;19.52;3.38;;;;;;;;;;5090351;28;20476;-65
2021/04/22 02:47:58;;;;;;;29.15;5.55;;;;;;;;;;5089820;28;20035;-64
2021/04/22 02:50:24;;;;;;;25.92;4.05;;;;;;;;;;5090556;28;20040;-64
2021/04/22 02:52:49;;;;;;;23.23;3.67;;;;;;;;;;5090098;28;20028;-65
2021/04/22 02:55:15;;;;;;;24.63;2.92;;;;;;;;;;5088466;28;20016;-65
2021/04/22 02:57:40;;;;;;;25.25;4.05;;;;;;;;;;5088995;28;20023;-64
2021/04/22 03:00:06;;;;;;;19.98;3.15;;;;;;;;;;5090334;28;20043;-64
2021/04/22 03:02:32;;;;;;;20.52;3.55;;;;;;;;;;5090561;28;20078;-65
2021/04/22 03:04:57;;;;;;;17.45;3.42;;;;;;;;;;5089823;28;20024;-65
2021/04/22 03:07:22;;;;;;;25.65;4.32;;;;;;;;;;5079243;28;20020;-66
2021/04/22 03:09:47;;;;;;;24.73;4.43;;;;;;;;;;5088686;28;20403;-65
2021/04/22 03:12:13;;;;;;;28.40;3.58;;;;;;;;;;5088894;28;20038;-64
2021/04/22 03:14:38;;;;;;;26.02;4.32;;;;;;;;;;5087565;28;20505;-64
2021/04/22 03:17:03;;;;;;;26.42;4.32;;;;;;;;;;5089190;28;20031;-65
2021/04/22 03:19:28;;;;;;;19.88;3.67;;;;;;;;;;5083731;28;20028;-64
2021/04/22 03:21:53;;;;;;;29.63;3.42;;;;;;;;;;5086548;28;20109;-64
2021/04/22 03:24:18;;;;;;;21.65;3.60;;;;;;;;;;5093806;28;21764;-64
2021/04/22 03:26:44;;;;;;;38.27;5.40;;;;;;;;;;5094181;28;20032;-65
2021/04/22 03:29:09;;;;;;;25.77;3.88;;;;;;;;;;5093475;28;20257;-65
2021/04/22 03:31:34;;;;;;;19.83;3.08;;;;;;;;;;5087226;28;20031;-65
2021/04/22 03:33:59;;;;;;;22.38;3.80;;;;;;;;;;5088585;28;20032;-66
2021/04/22 03:36:25;;;;;;;26.95;4.05;;;;;;;;;;5093330;28;20438;-65
2021/04/22 03:38:50;;;;;;;20.63;5.25;;;;;;;;;;5093469;28;20369;-65
2021/04/22 03:41:15;;;;;;;18.75;4.32;;;;;;;;;;5093740;28;20060;-64
2021/04/22 03:43:40;;;;;;;26.48;4.25;;;;;;;;;;5094080;28;20043;-64
2021/04/22 03:46:05;;;;;;;23.02;3.55;;;;;;;;;;5093565;28;20024;-66
2021/04/22 03:48:31;;;;;;;29.23;4.07;;;;;;;;;;5092720;28;20397;-64
2021/04/22 03:50:56;;;;;;;24.08;4.18;;;;;;;;;;5076858;28;20246;-64
2021/04/22 03:53:21;;;;;;;22.92;3.50;;;;;;;;;;5080507;28;20035;-65
2021/04/22 03:55:46;;;;;;;29.15;4.05;;;;;;;;;;5085512;28;20028;-65
2021/04/22 03:58:11;;;;;;;21.75;3.83;;;;;;;;;;5091838;28;20043;-64
2021/04/22 04:00:37;;;;;;;16.20;3.25;;;;;;;;;;5079850;28;20052;-65
2021/04/22 04:03:02;;;;;;;17.05;3.88;;;;;;;;;;5089804;28;20072;-64
2021/04/22 04:05:27;;;;;;;32.58;3.60;;;;;;;;;;5092001;28;20032;-64
2021/04/22 04:07:53;;;;;;;25.55;4.47;;;;;;;;;;5091068;28;20146;-64
2021/04/22 04:10:18;;;;;;;26.38;3.67;;;;;;;;;;5085727;28;20032;-64
2021/04/22 04:12:43;;;;;;;17.48;3.92;;;;;;;;;;5085121;28;20023;-64
2021/04/22 04:15:09;;;;;;;22.10;4.43;;;;;;;;;;5089409;28;20112;-64
2021/04/22 04:17:34;;;;;;;32.35;4.07;;;;;;;;;;5093232;28;20020;-66
2021/04/22 04:20:00;;;;;;;22.05;4.30;;;;;;;;;;5093060;28;20012;-68
2021/04/22 04:22:25;;;;;;;21.77;3.42;;;;;;;;;;5093608;28;20461;-65
2021/04/22 04:24:50;;;;;;;27.38;4.10;;;;;;;;;;5092226;28;20064;-64
2021/04/22 04:27:15;;;;;;;18.98;3.88;;;;;;;;;;5092499;28;20028;-65
2021/04/22 04:29:41;;;;;;;23.63;3.55;;;;;;;;;;5092770;28;21793;-64
2021/04/22 04:32:06;;;;;;;22.98;3.70;;;;;;;;;;5093088;28;20202;-64
2021/04/22 04:34:31;;;;;;;15.77;3.85;;;;;;;;;;5091463;28;20016;-65
2021/04/22 04:36:57;;;;;;;26.45;4.82;;;;;;;;;;5092812;28;20059;-64
2021/04/22 04:39:22;;;;;;;24.08;4.25;;;;;;;;;;5091062;28;20027;-64
2021/04/22 04:41:47;;;;;;;24.10;4.43;;;;;;;;;;5092157;28;20027;-64
2021/04/22 04:44:13;;;;;;;22.77;3.92;;;;;;;;;;5092530;28;20507;-64
2021/04/22 04:46:38;;;;;;;21.35;3.88;;;;;;;;;;5092459;28;20024;-66
2021/04/22 04:49:04;;;;;;;21.88;4.13;;;;;;;;;;5092628;28;20028;-64
2021/04/22 04:51:29;;;;;;;26.23;4.95;;;;;;;;;;5092893;28;20491;-64
2021/04/22 04:53:54;;;;;;;20.73;3.70;;;;;;;;;;5092577;28;20019;-65
2021/04/22 04:56:20;;;;;;;26.13;6.70;;;;;;;;;;5091959;28;20023;-64
2021/04/22 04:58:48;;;;;;;38.03;4.55;;;;;;;;;;5087492;28;20008;-64
2021/04/22 05:01:14;;;;;;;23.65;5.03;;;;;;;;;;5092123;28;20016;-67
2021/04/22 05:03:39;;;;;;;29.73;5.15;;;;;;;;;;5092709;28;20118;-64
2021/04/22 05:06:04;;;;;;;17.20;3.97;;;;;;;;;;5091964;28;20436;-65
2021/04/22 05:08:29;;;;;;;22.90;3.90;;;;;;;;;;5091784;28;20042;-65
2021/04/22 05:10:55;;;;;;;17.70;4.35;;;;;;;;;;5085595;28;20420;-67
2021/04/22 05:13:20;;;;;;;25.27;5.82;;;;;;;;;;5087425;28;20067;-65
2021/04/22 05:15:45;;;;;;;27.73;4.38;;;;;;;;;;5090310;28;20392;-65
2021/04/22 05:18:10;;;;;;;26.50;4.10;;;;;;;;;;5090029;28;20033;-66
2021/04/22 05:20:36;;;;;;;26.27;4.78;;;;;;;;;;5090381;28;20261;-65
2021/04/22 05:23:01;;;;;;;18.33;4.50;;;;;;;;;;5090013;28;20043;-65
2021/04/22 05:25:26;;;;;;;23.45;4.35;;;;;;;;;;5088024;28;20040;-65
2021/04/22 05:27:51;;;;;;;16.35;3.88;;;;;;;;;;5085418;28;20039;-66
2021/04/22 05:30:16;;;;;;;23.07;3.97;;;;;;;;;;5089487;28;20118;-65
2021/04/22 05:32:42;;;;;;;14.70;4.13;;;;;;;;;;5090179;28;20331;-66
2021/04/22 05:35:07;;;;;;;29.85;4.00;;;;;;;;;;5089975;28;20517;-64
2021/04/22 05:37:32;;;;;;;27.13;4.75;;;;;;;;;;5089535;28;20456;-65
2021/04/22 05:39:58;;;;;;;24.35;5.07;;;;;;;;;;5083741;28;20024;-66
2021/04/22 05:42:23;;;;;;;30.95;5.32;;;;;;;;;;5078178;28;20055;-64
2021/04/22 05:44:48;;;;;;;21.10;4.97;;;;;;;;;;5085975;28;20028;-66
2021/04/22 05:47:13;;;;;;;25.45;4.72;;;;;;;;;;5087468;28;20031;-65
2021/04/22 05:49:38;;;;;;;30.15;5.38;;;;;;;;;;5071346;28;20030;-66
2021/04/22 05:52:04;;;;;;;27.23;5.05;;;;;;;;;;5089295;28;20027;-64
2021/04/22 05:54:29;;;;;;;34.58;5.80;;;;;;;;;;5089170;28;20082;-65
2021/04/22 05:56:54;;;;;;;31.67;5.40;;;;;;;;;;5088278;28;20430;-65
2021/04/22 05:59:19;;;;;;;37.47;5.50;;;;;;;;;;5089199;28;20270;-65
2021/04/22 06:01:44;;;;;;;24.27;5.03;;;;;;;;;;5079844;28;20095;-66
2021/04/22 06:04:10;;;;;;;26.75;5.03;;;;;;;;;;5090578;28;20035;-65
2021/04/22 06:06:35;;;;;;;42.88;6.45;;;;;;;;;;5085333;28;20031;-65
2021/04/22 06:09:00;;;;;;;41.47;6.38;;;;;;;;;;5090189;28;20020;-65
2021/04/22 06:11:25;;;;;;;18.13;5.78;;;;;;;;;;5079259;28;20032;-65
2021/04/22 06:13:50;;;;;;;26.67;5.90;;;;;;;;;;5083934;28;20146;-64
2021/04/22 06:16:16;;;;;;;36.20;6.57;;;;;;;;;;5091344;28;20017;-65
2021/04/22 06:18:41;;;;;;;31.40;6.20;;;;;;;;;;5089623;28;20032;-65
2021/04/22 06:21:06;;;;;;;34.60;6.00;;;;;;;;;;5082734;28;20020;-65
2021/04/22 06:23:31;;;;;;;41.35;8.20;;;;;;;;;;5079765;28;20032;-65
2021/04/22 06:26:32;;;;;;;38.03;6.63;;;;;;;;;;5086212;22;20044;-85
2021/04/22 06:29:03;;;;;;;32.90;6.07;;;;;;;;;;5047828;28;20092;-85
2021/04/22 06:31:29;;;;;;;37.95;7.30;;;;;;;;;;5051355;28;20101;-87
2021/04/22 06:33:54;;;;;;;40.30;7.53;;;;;;;;;;5053369;28;20063;-85
2021/04/22 06:36:21;;;;;;;36.65;8.50;;;;;;;;;;5052030;28;20012;-85
2021/04/22 06:38:46;;;;;;;38.22;7.20;;;;;;;;;;5050655;28;20016;-84
2021/04/22 06:41:11;;;;;;;39.47;7.55;;;;;;;;;;5050763;28;20024;-85
2021/04/22 06:43:36;;;;;;;37.08;7.10;;;;;;;;;;5049814;28;20047;-85
2021/04/22 06:46:01;;;;;;;39.13;6.60;;;;;;;;;;5046596;28;20062;-85
2021/04/22 06:48:27;;;;;;;43.92;7.53;;;;;;;;;;5048983;28;20501;-85
2021/04/22 06:50:52;;;;;;;27.42;7.05;;;;;;;;;;5068976;28;20032;-85
2021/04/22 06:53:17;;;;;;;31.83;7.53;;;;;;;;;;5068920;28;20032;-84
2021/04/22 06:55:42;;;;;;;32.90;6.05;;;;;;;;;;5069204;28;20104;-84
2021/04/22 06:58:08;;;;;;;38.13;7.30;;;;;;;;;;5048472;28;20020;-83
2021/04/22 07:00:38;;;;;;;32.45;6.63;;;;;;;;;;5069061;28;20427;-85
2021/04/22 07:03:04;;;;;;;30.20;7.15;;;;;;;;;;5050140;28;20105;-85
2021/04/22 07:05:29;;;;;;;30.58;6.32;;;;;;;;;;5069685;28;20025;-85
2021/04/22 07:07:54;;;;;;;30.33;7.13;;;;;;;;;;5068741;28;20033;-84
2021/04/22 07:10:20;;;;;;;48.75;7.75;;;;;;;;;;5068468;28;20027;-85
2021/04/22 07:12:46;;;;;;;34.05;7.43;;;;;;;;;;5069091;28;20063;-86
2021/04/22 07:15:12;;;;;;;23.70;6.20;;;;;;;;;;5045579;28;20052;-84
2021/04/22 07:17:40;;;;;;;29.65;6.72;;;;;;;;;;5062016;28;20100;-85
2021/04/22 07:20:11;;;;;;;31.92;6.90;;;;;;;;;;5069778;28;20017;-86
2021/04/22 07:22:37;;;;;;;31.27;6.40;;;;;;;;;;5043402;28;20034;-85
2021/04/22 07:25:15;;;;;;;33.30;6.15;;;;;;;;;;5052849;28;20028;-85
2021/04/22 07:27:41;;;;;;;29.52;5.53;;;;;;;;;;5069954;28;20116;-85
2021/04/22 07:30:07;;;;;;;31.05;6.47;;;;;;;;;;5069189;28;20024;-85
2021/04/22 07:32:36;;;;;;;37.72;7.72;;;;;;;;;;5068274;28;20028;-85
2021/04/22 07:35:12;;;;;;;25.23;6.10;;;;;;;;;;5052159;28;20066;-86
2021/04/22 07:37:38;;;;;;;28.30;5.88;;;;;;;;;;5071156;28;20108;-85
2021/04/22 07:40:07;;;;;;;27.75;6.30;;;;;;;;;;5052748;28;20084;-85
2021/04/22 07:42:33;;;;;;;26.95;5.95;;;;;;;;;;5068297;28;20082;-85
2021/04/22 07:44:58;;;;;;;35.50;6.15;;;;;;;;;;5051577;28;20498;-85
2021/04/22 07:47:23;;;;;;;27.92;6.05;;;;;;;;;;5039520;28;20032;-86
2021/04/22 07:49:48;;;;;;;38.58;6.03;;;;;;;;;;5049269;28;20025;-85
2021/04/22 07:55:15;;;;;;;22.25;5.00;;;;;;;;;;5043007;28;20032;-85
2021/04/22 07:57:41;;;;;;;25.05;4.82;;;;;;;;;;5049959;28;20075;-85
2021/04/22 08:00:19;;;;;;;22.92;5.60;;;;;;;;;;5051086;28;20048;-85
2021/04/22 08:03:12;;;;;;;15.50;4.45;;;;;;;;;;5064386;28;20028;-85
2021/04/22 08:06:18;;;;;;;16.38;3.78;;;;;;;;;;5043833;28;20040;-85
2021/04/22 08:08:53;;;;;;;19.75;3.75;;;;;;;;;;4982808;28;20026;-85
2021/04/22 08:11:33;;;;;;;17.17;3.83;;;;;;;;;;5059930;28;20025;-85
2021/04/22 08:14:26;;;;;;;17.75;4.07;;;;;;;;;;5046226;28;20078;-85
2021/04/22 08:17:46;;;;;;;22.95;4.20;;;;;;;;;;5054485;28;20024;-85
2021/04/22 08:20:39;;;;;;;23.38;3.83;;;;;;;;;;5064707;28;20021;-85
2021/04/22 08:25:55;;;;;;;;;;;;;;;;;;5063906;28;20064;-85
2021/04/22 08:28:44;;;;;;;21.60;3.60;;;;;;;;;;5072736;28;19962;-85
2021/04/22 08:31:44;;;;;;;15.30;3.85;;;;;;;;;;5025797;28;20777;-84
2021/04/22 08:34:26;;;;;;;;;;;;;;;;;;;;;
2021/04/22 08:37:24;;;;;;;16.80;4.13;;;;;;;;;;5072195;28;20013;-84
2021/04/22 08:40:06;;;;;;;25.67;5.03;;;;;;;;;;5040038;28;20361;-85
2021/04/22 08:43:00;;;;;;;16.80;3.60;;;;;;;;;;5072764;28;20031;-84
2021/04/22 08:48:26;;;;;;;11.95;3.30;;;;;;;;;;5047567;28;20508;-84
2021/04/22 08:51:12;;;;;;;16.40;3.70;;;;;;;;;;5067320;28;20589;-85
2021/04/22 08:54:07;;;;;;;;;;;;;;;;;;;;;
2021/04/22 08:59:54;;;;;;;;;;;;;;;;;;;;;
2021/04/22 09:02:22;;;;;;;25.38;5.57;;;;;;;;;;5065078;28;20023;-84
2021/04/22 09:04:48;;;;;;;14.73;3.78;;;;;;;;;;5043329;28;20044;-84
2021/04/22 09:07:42;;;;;;;16.05;3.13;;;;;;;;;;5038145;28;20167;-85
2021/04/22 09:10:08;;;;;;;35.47;5.53;;;;;;;;;;5043198;28;20103;-83
2021/04/22 09:12:37;;;;;;;20.80;3.55;;;;;;;;;;5054216;28;20028;-84
2021/04/22 09:15:21;;;;;;;20.83;4.50;;;;;;;;;;5070915;28;20012;-84
2021/04/22 09:17:56;;;;;;;14.90;4.05;;;;;;;;;;5037037;28;20025;-84
2021/04/22 09:20:37;;;;;;;20.10;6.13;;;;;;;;;;5051732;28;20376;-84
2021/04/22 09:23:08;;;;;;;;;;;;;;;;;;5072266;28;20035;-84
2021/04/22 09:26:14;;;;;;;15.07;5.18;;;;;;;;;;5072328;28;19905;-84
2021/04/22 09:29:09;;;;;;;20.10;5.00;;;;;;;;;;5070738;28;20068;-84
2021/04/22 09:31:59;;;;;;;;;;;;;;;;;;;;;
2021/04/22 09:35:44;;;;;;;20.63;4.82;;;;;;;;;;5072091;28;20288;-84
2021/04/22 09:37:46;;;;;;;24.83;5.63;;;;;;;;;;5051667;28;20071;-83
2021/04/22 09:40:30;;;;;;;20.52;5.78;;;;;;;;;;5042123;28;20026;-84
2021/04/22 09:43:21;;;;;;;20.90;6.38;;;;;;;;;;5050477;28;20024;-85
2021/04/22 09:52:07;;;;;;;14.07;3.70;;;;;;;;;;4973930;28;20046;-84
2021/04/22 09:54:46;;;;;;;18.85;5.50;;;;;;;;;;5063631;28;20038;-84
2021/04/22 10:07:25;;;;;;;;;;;;;;;;;;;;;
2021/04/22 10:25:29;;;;;;;19.48;5.43;;;;;;;;;;4988215;28;20695;-86
2021/04/22 10:28:57;;;;;;;21.63;4.88;;;;;;;;;;4997621;28;20377;-85
2021/04/22 10:31:25;;;;;;;21.77;5.93;;;;;;;;;;5020717;28;20080;-84
2021/04/22 10:34:12;;;;;;;18.27;4.10;;;;;;;;;;5064155;28;20024;-85
2021/04/22 10:37:05;;;;;;;18.55;4.55;;;;;;;;;;5070662;28;20115;-85
2021/04/22 10:43:31;;;;;;;22.33;6.03;;;;;;;;;;5069236;28;20032;-85
2021/04/22 10:46:00;;;;;;;18.13;6.07;;;;;;;;;;5067502;28;20029;-85
2021/04/22 10:48:31;;;;;;;14.13;4.30;;;;;;;;;;5068666;28;20547;-85
2021/04/22 10:51:03;;;;;;;16.27;4.45;;;;;;;;;;5070676;28;20077;-85
2021/04/22 10:53:29;;;;;;;24.15;3.83;;;;;;;;;;5059831;28;20856;-85
2021/04/22 10:55:58;;;;;;;18.92;4.28;;;;;;;;;;5061345;28;20087;-85
2021/04/22 10:58:35;;;;;;;16.48;4.72;;;;;;;;;;5069746;28;20497;-85
2021/04/22 11:08:04;;;;;;;27.08;3.88;;;;;;;;;;5008556;28;20034;-85
2021/04/22 11:10:34;;;;;;;22.52;4.22;;;;;;;;;;5012120;28;20040;-84
2021/04/22 11:13:17;;;;;;;21.80;4.13;;;;;;;;;;5045600;28;20036;-85
2021/04/22 11:15:58;;;;;;;16.70;3.50;;;;;;;;;;5056130;28;21589;-85
2021/04/22 11:18:55;;;;;;;18.23;3.88;;;;;;;;;;5069809;28;20027;-85
2021/04/22 11:21:28;;;;;;;18.15;3.60;;;;;;;;;;5069575;28;20039;-84
2021/04/22 11:24:00;;;;;;;20.42;3.83;;;;;;;;;;5070986;28;20073;-84
2021/04/22 11:26:33;;;;;;;15.13;3.53;;;;;;;;;;5067781;28;20035;-84
2021/04/22 11:29:11;;;;;;;13.25;3.53;;;;;;;;;;5070083;28;20074;-85
2021/04/22 11:31:53;;;;;;;17.20;4.28;;;;;;;;;;5070233;28;20016;-85
2021/04/22 11:34:34;;;;;;;14.10;3.60;;;;;;;;;;5069095;28;20020;-85
2021/04/22 11:37:06;;;;;;;16.38;3.80;;;;;;;;;;5070104;28;20054;-85
2021/04/22 11:39:32;;;;;;;12.13;3.53;;;;;;;;;;5069775;28;20048;-84
2021/04/22 11:41:59;;;;;;;11.60;3.78;;;;;;;;;;5067467;28;20455;-85
2021/04/22 11:44:35;;;;;;;21.80;4.40;;;;;;;;;;5071850;28;20230;-85
2021/04/22 11:47:00;;;;;;;19.90;4.10;;;;;;;;;;5072489;28;20020;-86
2021/04/22 11:49:27;;;;;;;16.13;3.83;;;;;;;;;;5071922;28;20158;-84
2021/04/22 11:51:52;;;;;;;14.45;3.78;;;;;;;;;;5063787;28;20024;-84
2021/04/22 11:54:18;;;;;;;21.92;4.15;;;;;;;;;;5057878;28;20021;-84
2021/04/22 11:56:46;;;;;;;19.03;5.30;;;;;;;;;;5071285;28;20020;-85
2021/04/22 11:59:17;;;;;;;12.40;3.45;;;;;;;;;;5073100;28;20349;-84
2021/04/22 12:01:58;;;;;;;21.80;4.70;;;;;;;;;;5074295;28;20099;-84
2021/04/22 12:04:23;;;;;;;;;;;;;;;;;;5074253;28;20414;-85
2021/04/22 12:06:50;;;;;;;13.20;4.10;;;;;;;;;;5073363;28;19959;-85
2021/04/22 12:09:24;;;;;;;18.23;4.30;;;;;;;;;;5073126;28;20346;-85
2021/04/22 12:11:50;;;;;;;13.93;4.00;;;;;;;;;;5084453;22;20552;-63
2021/04/22 12:14:25;;;;;;;16.92;4.55;;;;;;;;;;5071725;28;20035;-64
2021/04/22 12:16:51;;;;;;;26.50;4.45;;;;;;;;;;5067749;28;20056;-63
2021/04/22 12:19:21;;;;;;;17.80;4.88;;;;;;;;;;5073335;28;20436;-62
2021/04/22 12:21:47;;;;;;;16.08;4.82;;;;;;;;;;5070320;28;20044;-62
2021/04/22 12:24:12;;;;;;;24.05;5.18;;;;;;;;;;5073066;28;20059;-63
2021/04/22 12:26:38;;;;;;;12.10;4.07;;;;;;;;;;5072805;28;20116;-64
2021/04/22 12:29:12;;;;;;;19.15;4.07;;;;;;;;;;5065220;28;20256;-64
2021/04/22 12:31:38;;;;;;;17.85;5.15;;;;;;;;;;5065250;28;20086;-63
2021/04/22 12:34:36;;;;;;;17.10;4.82;;;;;;;;;;5063540;28;20071;-62
2021/04/22 12:37:09;;;;;;;17.30;4.43;;;;;;;;;;5016710;28;20045;-63
2021/04/22 12:39:35;;;;;;;19.25;4.60;;;;;;;;;;5072301;28;20468;-62
2021/04/22 12:42:02;;;;;;;17.45;4.72;;;;;;;;;;5072420;28;20071;-64
2021/04/22 12:44:27;;;;;;;26.92;4.32;;;;;;;;;;5071906;28;20028;-64
2021/04/22 12:46:52;;;;;;;28.67;4.90;;;;;;;;;;5071116;28;20550;-65
2021/04/22 12:49:19;;;;;;;18.00;4.23;;;;;;;;;;5071724;28;20349;-64
2021/04/22 12:51:44;;;;;;;12.95;4.25;;;;;;;;;;5071959;28;20266;-64
2021/04/22 12:54:15;;;;;;;15.13;4.97;;;;;;;;;;5071935;28;20024;-64
2021/04/22 12:56:41;;;;;;;20.95;4.50;;;;;;;;;;5071042;28;20267;-64
2021/04/22 12:59:08;;;;;;;18.25;5.75;;;;;;;;;;5070945;28;20029;-64
2021/04/22 13:01:35;;;;;;;14.77;4.13;;;;;;;;;;5071773;28;20024;-64
2021/04/22 13:04:02;;;;;;;16.52;5.20;;;;;;;;;;5071653;28;20047;-63
2021/04/22 13:06:27;;;;;;;18.15;5.10;;;;;;;;;;5071446;28;20016;-64
2021/04/22 13:08:54;;;;;;;17.58;3.95;;;;;;;;;;5071163;28;20035;-64
2021/04/22 13:11:21;;;;;;;18.80;4.53;;;;;;;;;;5071596;28;20107;-66
2021/04/22 13:13:54;;;;;;;15.77;5.63;;;;;;;;;;5072125;28;20023;-64
2021/04/22 13:16:22;;;;;;;22.63;4.70;;;;;;;;;;5070791;28;20457;-63
2021/04/22 13:18:48;;;;;;;16.70;4.72;;;;;;;;;;5071275;28;20032;-62
2021/04/22 13:21:15;;;;;;;25.80;5.13;;;;;;;;;;5071401;28;20024;-65
2021/04/22 13:23:40;;;;;;;22.92;4.72;;;;;;;;;;5071784;28;20028;-63
2021/04/22 13:26:16;;;;;;;27.75;4.95;;;;;;;;;;5071283;28;20016;-63
2021/04/22 13:28:41;;;;;;;22.23;4.00;;;;;;;;;;5070494;28;20040;-64
2021/04/22 13:31:13;;;;;;;24.65;5.05;;;;;;;;;;5071721;28;20016;-64
2021/04/22 13:33:38;;;;;;;16.88;4.18;;;;;;;;;;5066506;28;20029;-63
2021/04/22 13:36:04;;;;;;;15.05;3.83;;;;;;;;;;5071321;28;20380;-63
2021/04/22 13:38:29;;;;;;;15.68;5.22;;;;;;;;;;5070941;28;20351;-64
2021/04/22 13:41:06;;;;;;;19.55;4.10;;;;;;;;;;5069680;28;20095;-64
2021/04/22 13:43:32;;;;;;;16.02;4.22;;;;;;;;;;5071448;28;20027;-63
2021/04/22 13:45:58;;;;;;;14.55;4.25;;;;;;;;;;5069391;28;20021;-64
2021/04/22 13:48:23;;;;;;;17.40;4.28;;;;;;;;;;5070718;28;20044;-64
2021/04/22 13:50:48;;;;;;;19.10;5.93;;;;;;;;;;5070459;28;20089;-65
2021/04/22 13:53:14;;;;;;;22.98;5.13;;;;;;;;;;5071075;28;20094;-64
2021/04/22 13:55:54;;;;;;;20.45;4.80;;;;;;;;;;5062350;28;20024;-65
2021/04/22 13:58:27;;;;;;;14.15;5.78;;;;;;;;;;5069103;28;20063;-64
2021/04/22 14:00:52;;;;;;;11.60;3.83;;;;;;;;;;5068386;28;20020;-64
2021/04/22 14:03:18;;;;;;;26.60;4.15;;;;;;;;;;5070492;28;20027;-63
2021/04/22 14:05:43;;;;;;;18.90;4.33;;;;;;;;;;5070416;28;20036;-65
2021/04/22 14:08:08;;;;;;;22.05;4.90;;;;;;;;;;5070634;28;20742;-64
2021/04/22 14:10:37;;;;;;;17.95;5.32;;;;;;;;;;5070805;28;20021;-63
2021/04/22 14:13:20;;;;;;;15.00;5.05;;;;;;;;;;5068383;28;20104;-63
2021/04/22 14:15:45;;;;;;;20.55;6.43;;;;;;;;;;5069797;28;20411;-64
2021/04/22 14:18:10;;;;;;;18.73;5.13;;;;;;;;;;5069716;28;20024;-64
2021/04/22 14:20:35;;;;;;;23.25;4.95;;;;;;;;;;5070791;28;20326;-64
2021/04/22 14:23:01;;;;;;;11.90;4.03;;;;;;;;;;5070208;28;20024;-63
2021/04/22 14:25:26;;;;;;;17.20;4.47;;;;;;;;;;5070553;28;20313;-64
2021/04/22 14:27:51;;;;;;;17.30;4.87;;;;;;;;;;5067398;28;20020;-65
2021/04/22 14:30:16;;;;;;;18.80;5.80;;;;;;;;;;5061004;28;20440;-62
2021/04/22 14:32:42;;;;;;;14.88;4.32;;;;;;;;;;5060046;28;20286;-62
2021/04/22 14:35:07;;;;;;;12.43;4.37;;;;;;;;;;5061890;28;20024;-63
2021/04/22 14:37:32;;;;;;;17.30;4.53;;;;;;;;;;5059733;28;20266;-63
2021/04/22 14:39:57;;;;;;;17.83;5.80;;;;;;;;;;5069748;28;20170;-64
2021/04/22 14:42:24;;;;;;;22.73;4.95;;;;;;;;;;5069298;28;20012;-63
2021/04/22 14:44:58;;;;;;;15.07;4.47;;;;;;;;;;5066250;28;20086;-64
2021/04/22 14:47:23;;;;;;;22.88;4.85;;;;;;;;;;5069752;28;20416;-64
2021/04/22 14:49:48;;;;;;;22.53;5.50;;;;;;;;;;5069195;28;20021;-64
2021/04/22 14:52:13;;;;;;;17.93;5.30;;;;;;;;;;5070285;28;20255;-64
2021/04/22 14:54:38;;;;;;;17.53;4.97;;;;;;;;;;5068148;28;20694;-65
2021/04/22 14:57:04;;;;;;;16.43;5.10;;;;;;;;;;5068838;28;20267;-63
2021/04/22 14:59:29;;;;;;;18.80;5.07;;;;;;;;;;5062840;28;20642;-65
2021/04/22 15:01:54;;;;;;;18.20;4.70;;;;;;;;;;5055824;28;20421;-63
2021/04/22 15:04:19;;;;;;;16.07;4.40;;;;;;;;;;5063963;28;20259;-63
2021/04/22 15:06:45;;;;;;;25.25;5.00;;;;;;;;;;5068493;28;20778;-65
2021/04/22 15:09:11;;;;;;;24.90;4.65;;;;;;;;;;5069403;28;20081;-63
2021/04/22 15:11:36;;;;;;;21.02;5.28;;;;;;;;;;5066475;28;20066;-63
2021/04/22 15:14:02;;;;;;;23.00;4.87;;;;;;;;;;5068750;28;20491;-64
2021/04/22 15:16:27;;;;;;;21.60;5.03;;;;;;;;;;5062959;28;20272;-63
2021/04/22 15:18:52;;;;;;;17.73;5.03;;;;;;;;;;5061536;28;20025;-63
2021/04/22 15:21:18;;;;;;;16.75;4.53;;;;;;;;;;5065731;28;20275;-63
2021/04/22 15:23:44;;;;;;;16.45;4.45;;;;;;;;;;5067924;28;20036;-64
2021/04/22 15:26:09;;;;;;;16.20;5.13;;;;;;;;;;5069400;28;20032;-63
2021/04/22 15:28:35;;;;;;;31.20;6.10;;;;;;;;;;5066136;28;20364;-63
2021/04/22 15:31:00;;;;;;;18.35;4.97;;;;;;;;;;5055267;28;20094;-63
2021/04/22 15:33:26;;;;;;;15.60;6.10;;;;;;;;;;5066651;28;20032;-64
2021/04/22 15:35:51;;;;;;;19.48;5.60;;;;;;;;;;5059159;28;20629;-64
2021/04/22 15:38:16;;;;;;;18.17;4.97;;;;;;;;;;5064117;28;20675;-64
2021/04/22 15:40:42;;;;;;;21.00;5.43;;;;;;;;;;5066080;28;20294;-63